sensor_id;sensor_type;location;lat;lon;timestamp;P1;durP1;ratioP1;P2;durP2;ratioP2
21777;SDS011;11050;52.222;20.916;2023-12-20T00:01:35;30.43;;;17.93;;
21777;SDS011;11050;52.222;20.916;2023-12-20T00:04:02;27.40;;;17.30;;
21777;SDS011;11050;52.222;20.916;2023-12-20T00:06:28;27.20;;;14.27;;
21777;SDS011;11050;52.222;20.916;2023-12-20T00:08:54;25.73;;;15.00;;
21777;SDS011;11050;52.222;20.916;2023-12-20T00:11:20;26.23;;;17.17;;
21777;SDS011;11050;52.222;20.916;2023-12-20T00:13:46;27.80;;;17.13;;
21777;SDS011;11050;52.222;20.916;2023-12-20T00:16:12;30.03;;;17.43;;
21777;SDS011;11050;52.222;20.916;2023-12-20T00:18:37;29.63;;;18.17;;
21777;SDS011;11050;52.222;20.916;2023-12-20T00:21:03;30.27;;;15.70;;
21777;SDS011;11050;52.222;20.916;2023-12-20T00:23:29;27.27;;;17.87;;
21777;SDS011;11050;52.222;20.916;2023-12-20T00:25:55;26.17;;;16.73;;
21777;SDS011;11050;52.222;20.916;2023-12-20T00:28:21;24.40;;;15.43;;
21777;SDS011;11050;52.222;20.916;2023-12-20T00:30:47;30.10;;;18.03;;
21777;SDS011;11050;52.222;20.916;2023-12-20T00:33:13;22.83;;;13.23;;
21777;SDS011;11050;52.222;20.916;2023-12-20T00:35:38;28.80;;;16.30;;
21777;SDS011;11050;52.222;20.916;2023-12-20T00:38:04;24.33;;;15.47;;
21777;SDS011;11050;52.222;20.916;2023-12-20T00:40:31;25.67;;;16.27;;
21777;SDS011;11050;52.222;20.916;2023-12-20T00:42:58;25.17;;;16.50;;
21777;SDS011;11050;52.222;20.916;2023-12-20T00:45:23;23.40;;;13.20;;
21777;SDS011;11050;52.222;20.916;2023-12-20T00:47:49;23.40;;;15.13;;
21777;SDS011;11050;52.222;20.916;2023-12-20T00:50:15;25.40;;;16.20;;
21777;SDS011;11050;52.222;20.916;2023-12-20T00:52:41;27.90;;;17.00;;
21777;SDS011;11050;52.222;20.916;2023-12-20T00:55:06;22.13;;;13.30;;
21777;SDS011;11050;52.222;20.916;2023-12-20T00:57:32;26.47;;;16.23;;
21777;SDS011;11050;52.222;20.916;2023-12-20T00:59:59;26.53;;;15.50;;
21777;SDS011;11050;52.222;20.916;2023-12-20T01:02:24;27.90;;;17.07;;
21777;SDS011;11050;52.222;20.916;2023-12-20T01:04:50;25.40;;;15.10;;
21777;SDS011;11050;52.222;20.916;2023-12-20T01:07:16;21.73;;;13.37;;
21777;SDS011;11050;52.222;20.916;2023-12-20T01:09:41;23.23;;;15.87;;
21777;SDS011;11050;52.222;20.916;2023-12-20T01:12:07;24.43;;;14.83;;
21777;SDS011;11050;52.222;20.916;2023-12-20T01:14:32;25.57;;;15.50;;
21777;SDS011;11050;52.222;20.916;2023-12-20T01:16:58;23.30;;;14.80;;
21777;SDS011;11050;52.222;20.916;2023-12-20T01:19:24;21.47;;;13.80;;
21777;SDS011;11050;52.222;20.916;2023-12-20T01:21:52;23.47;;;14.83;;
21777;SDS011;11050;52.222;20.916;2023-12-20T01:24:17;22.20;;;14.53;;
21777;SDS011;11050;52.222;20.916;2023-12-20T01:26:43;23.33;;;14.47;;
21777;SDS011;11050;52.222;20.916;2023-12-20T01:29:08;20.73;;;13.57;;
21777;SDS011;11050;52.222;20.916;2023-12-20T01:31:34;19.30;;;10.70;;
21777;SDS011;11050;52.222;20.916;2023-12-20T01:34:00;23.47;;;13.97;;
21777;SDS011;11050;52.222;20.916;2023-12-20T01:36:25;22.90;;;14.47;;
21777;SDS011;11050;52.222;20.916;2023-12-20T01:38:52;21.20;;;13.67;;
21777;SDS011;11050;52.222;20.916;2023-12-20T01:41:17;24.30;;;15.07;;
21777;SDS011;11050;52.222;20.916;2023-12-20T01:43:43;22.47;;;14.33;;
21777;SDS011;11050;52.222;20.916;2023-12-20T01:46:08;23.57;;;14.53;;
21777;SDS011;11050;52.222;20.916;2023-12-20T01:48:35;22.37;;;14.67;;
21777;SDS011;11050;52.222;20.916;2023-12-20T01:51:01;17.23;;;10.80;;
21777;SDS011;11050;52.222;20.916;2023-12-20T01:53:28;21.93;;;13.23;;
21777;SDS011;11050;52.222;20.916;2023-12-20T01:55:55;19.03;;;12.07;;
21777;SDS011;11050;52.222;20.916;2023-12-20T01:58:23;19.73;;;12.83;;
21777;SDS011;11050;52.222;20.916;2023-12-20T02:00:50;25.07;;;13.63;;
21777;SDS011;11050;52.222;20.916;2023-12-20T02:03:17;21.00;;;13.57;;
21777;SDS011;11050;52.222;20.916;2023-12-20T02:05:43;24.13;;;14.87;;
21777;SDS011;11050;52.222;20.916;2023-12-20T02:08:11;19.23;;;11.43;;
21777;SDS011;11050;52.222;20.916;2023-12-20T02:10:37;18.70;;;13.33;;
21777;SDS011;11050;52.222;20.916;2023-12-20T02:13:03;14.93;;;10.20;;
21777;SDS011;11050;52.222;20.916;2023-12-20T02:15:29;16.67;;;10.97;;
21777;SDS011;11050;52.222;20.916;2023-12-20T02:17:55;20.00;;;11.40;;
21777;SDS011;11050;52.222;20.916;2023-12-20T02:20:21;17.73;;;9.57;;
21777;SDS011;11050;52.222;20.916;2023-12-20T02:22:47;19.03;;;12.40;;
21777;SDS011;11050;52.222;20.916;2023-12-20T02:25:13;19.63;;;10.93;;
21777;SDS011;11050;52.222;20.916;2023-12-20T02:27:39;14.57;;;9.27;;
21777;SDS011;11050;52.222;20.916;2023-12-20T02:30:05;16.30;;;11.20;;
21777;SDS011;11050;52.222;20.916;2023-12-20T02:32:31;17.80;;;11.00;;
21777;SDS011;11050;52.222;20.916;2023-12-20T02:34:57;17.20;;;10.03;;
21777;SDS011;11050;52.222;20.916;2023-12-20T02:37:23;16.07;;;9.53;;
21777;SDS011;11050;52.222;20.916;2023-12-20T02:39:49;13.20;;;8.33;;
21777;SDS011;11050;52.222;20.916;2023-12-20T02:42:15;11.90;;;7.90;;
21777;SDS011;11050;52.222;20.916;2023-12-20T02:44:40;12.80;;;7.83;;
21777;SDS011;11050;52.222;20.916;2023-12-20T02:47:06;11.27;;;6.87;;
21777;SDS011;11050;52.222;20.916;2023-12-20T02:49:32;9.20;;;6.07;;
21777;SDS011;11050;52.222;20.916;2023-12-20T02:51:57;9.90;;;5.97;;
21777;SDS011;11050;52.222;20.916;2023-12-20T02:54:23;8.93;;;5.10;;
21777;SDS011;11050;52.222;20.916;2023-12-20T02:56:49;8.53;;;5.00;;
21777;SDS011;11050;52.222;20.916;2023-12-20T02:59:15;8.23;;;5.47;;
21777;SDS011;11050;52.222;20.916;2023-12-20T03:01:41;7.30;;;5.00;;
21777;SDS011;11050;52.222;20.916;2023-12-20T03:04:10;5.33;;;3.83;;
21777;SDS011;11050;52.222;20.916;2023-12-20T03:06:37;7.50;;;5.07;;
21777;SDS011;11050;52.222;20.916;2023-12-20T03:09:03;6.73;;;4.47;;
21777;SDS011;11050;52.222;20.916;2023-12-20T03:11:29;8.63;;;5.27;;
21777;SDS011;11050;52.222;20.916;2023-12-20T03:13:56;7.40;;;5.00;;
21777;SDS011;11050;52.222;20.916;2023-12-20T03:16:22;8.10;;;5.43;;
21777;SDS011;11050;52.222;20.916;2023-12-20T03:18:49;5.63;;;4.47;;
21777;SDS011;11050;52.222;20.916;2023-12-20T03:21:15;6.87;;;4.53;;
21777;SDS011;11050;52.222;20.916;2023-12-20T03:23:40;5.60;;;3.93;;
21777;SDS011;11050;52.222;20.916;2023-12-20T03:26:07;8.27;;;4.67;;
21777;SDS011;11050;52.222;20.916;2023-12-20T03:28:33;6.70;;;4.60;;
21777;SDS011;11050;52.222;20.916;2023-12-20T03:31:00;5.20;;;3.70;;
21777;SDS011;11050;52.222;20.916;2023-12-20T03:33:27;4.67;;;3.77;;
21777;SDS011;11050;52.222;20.916;2023-12-20T03:35:53;5.50;;;4.30;;
21777;SDS011;11050;52.222;20.916;2023-12-20T03:38:19;5.27;;;4.53;;
21777;SDS011;11050;52.222;20.916;2023-12-20T03:40:45;6.33;;;4.53;;
21777;SDS011;11050;52.222;20.916;2023-12-20T03:43:11;5.50;;;4.27;;
21777;SDS011;11050;52.222;20.916;2023-12-20T03:45:36;7.30;;;4.83;;
21777;SDS011;11050;52.222;20.916;2023-12-20T03:48:02;8.00;;;4.70;;
21777;SDS011;11050;52.222;20.916;2023-12-20T03:50:29;7.93;;;5.30;;
21777;SDS011;11050;52.222;20.916;2023-12-20T03:52:54;7.73;;;4.50;;
21777;SDS011;11050;52.222;20.916;2023-12-20T03:55:20;6.83;;;5.13;;
21777;SDS011;11050;52.222;20.916;2023-12-20T03:57:45;8.47;;;6.10;;
21777;SDS011;11050;52.222;20.916;2023-12-20T04:00:11;6.17;;;4.73;;
21777;SDS011;11050;52.222;20.916;2023-12-20T04:02:38;9.97;;;5.20;;
21777;SDS011;11050;52.222;20.916;2023-12-20T04:05:05;8.67;;;6.27;;
21777;SDS011;11050;52.222;20.916;2023-12-20T04:07:31;9.70;;;6.67;;
21777;SDS011;11050;52.222;20.916;2023-12-20T04:09:57;11.17;;;7.20;;
21777;SDS011;11050;52.222;20.916;2023-12-20T04:12:23;8.77;;;6.70;;
21777;SDS011;11050;52.222;20.916;2023-12-20T04:14:49;9.63;;;6.87;;
21777;SDS011;11050;52.222;20.916;2023-12-20T04:17:15;13.53;;;7.70;;
21777;SDS011;11050;52.222;20.916;2023-12-20T04:19:41;12.50;;;7.60;;
21777;SDS011;11050;52.222;20.916;2023-12-20T04:22:08;13.87;;;8.37;;
21777;SDS011;11050;52.222;20.916;2023-12-20T04:24:34;15.70;;;9.10;;
21777;SDS011;11050;52.222;20.916;2023-12-20T04:27:00;12.13;;;7.90;;
21777;SDS011;11050;52.222;20.916;2023-12-20T04:29:26;15.30;;;9.50;;
21777;SDS011;11050;52.222;20.916;2023-12-20T04:31:52;15.53;;;9.43;;
21777;SDS011;11050;52.222;20.916;2023-12-20T04:34:18;15.00;;;10.17;;
21777;SDS011;11050;52.222;20.916;2023-12-20T04:36:43;15.47;;;9.63;;
21777;SDS011;11050;52.222;20.916;2023-12-20T04:39:11;16.07;;;10.17;;
21777;SDS011;11050;52.222;20.916;2023-12-20T04:41:38;11.63;;;7.40;;
21777;SDS011;11050;52.222;20.916;2023-12-20T04:44:04;11.10;;;7.27;;
21777;SDS011;11050;52.222;20.916;2023-12-20T04:46:31;15.93;;;10.70;;
21777;SDS011;11050;52.222;20.916;2023-12-20T04:48:57;15.83;;;9.70;;
21777;SDS011;11050;52.222;20.916;2023-12-20T04:51:22;14.90;;;9.23;;
21777;SDS011;11050;52.222;20.916;2023-12-20T04:53:48;15.47;;;10.30;;
21777;SDS011;11050;52.222;20.916;2023-12-20T04:56:14;17.10;;;10.13;;
21777;SDS011;11050;52.222;20.916;2023-12-20T04:58:40;14.10;;;9.50;;
21777;SDS011;11050;52.222;20.916;2023-12-20T05:01:05;15.30;;;8.90;;
21777;SDS011;11050;52.222;20.916;2023-12-20T05:03:32;17.33;;;10.77;;
21777;SDS011;11050;52.222;20.916;2023-12-20T05:05:58;14.57;;;10.13;;
21777;SDS011;11050;52.222;20.916;2023-12-20T05:08:23;18.37;;;10.80;;
21777;SDS011;11050;52.222;20.916;2023-12-20T05:10:50;17.80;;;11.70;;
21777;SDS011;11050;52.222;20.916;2023-12-20T05:13:18;17.93;;;10.63;;
21777;SDS011;11050;52.222;20.916;2023-12-20T05:15:44;16.70;;;11.20;;
21777;SDS011;11050;52.222;20.916;2023-12-20T05:18:10;16.70;;;10.93;;
21777;SDS011;11050;52.222;20.916;2023-12-20T05:20:35;17.87;;;10.57;;
21777;SDS011;11050;52.222;20.916;2023-12-20T05:23:02;17.97;;;11.37;;
21777;SDS011;11050;52.222;20.916;2023-12-20T05:25:28;17.87;;;11.87;;
21777;SDS011;11050;52.222;20.916;2023-12-20T05:27:53;18.17;;;11.10;;
21777;SDS011;11050;52.222;20.916;2023-12-20T05:30:19;17.03;;;10.43;;
21777;SDS011;11050;52.222;20.916;2023-12-20T05:32:44;18.37;;;11.90;;
21777;SDS011;11050;52.222;20.916;2023-12-20T05:35:10;16.73;;;9.37;;
21777;SDS011;11050;52.222;20.916;2023-12-20T05:37:36;16.00;;;10.37;;
21777;SDS011;11050;52.222;20.916;2023-12-20T05:40:02;14.07;;;9.07;;
21777;SDS011;11050;52.222;20.916;2023-12-20T05:42:29;17.60;;;11.50;;
21777;SDS011;11050;52.222;20.916;2023-12-20T05:44:55;15.63;;;9.70;;
21777;SDS011;11050;52.222;20.916;2023-12-20T05:47:20;19.70;;;11.77;;
21777;SDS011;11050;52.222;20.916;2023-12-20T05:49:46;20.20;;;12.07;;
21777;SDS011;11050;52.222;20.916;2023-12-20T05:52:11;17.43;;;11.63;;
21777;SDS011;11050;52.222;20.916;2023-12-20T05:54:37;19.23;;;12.07;;
21777;SDS011;11050;52.222;20.916;2023-12-20T05:57:03;18.33;;;11.77;;
21777;SDS011;11050;52.222;20.916;2023-12-20T05:59:29;18.90;;;11.30;;
21777;SDS011;11050;52.222;20.916;2023-12-20T06:01:54;20.43;;;11.93;;
21777;SDS011;11050;52.222;20.916;2023-12-20T06:04:20;14.37;;;8.47;;
21777;SDS011;11050;52.222;20.916;2023-12-20T06:06:46;20.47;;;12.50;;
21777;SDS011;11050;52.222;20.916;2023-12-20T06:09:12;20.13;;;12.23;;
21777;SDS011;11050;52.222;20.916;2023-12-20T06:11:37;18.83;;;11.40;;
21777;SDS011;11050;52.222;20.916;2023-12-20T06:14:03;17.10;;;10.77;;
21777;SDS011;11050;52.222;20.916;2023-12-20T06:16:29;18.13;;;11.60;;
21777;SDS011;11050;52.222;20.916;2023-12-20T06:18:54;18.27;;;11.23;;
21777;SDS011;11050;52.222;20.916;2023-12-20T06:21:20;16.90;;;10.60;;
21777;SDS011;11050;52.222;20.916;2023-12-20T06:23:46;19.50;;;11.20;;
21777;SDS011;11050;52.222;20.916;2023-12-20T06:26:11;16.57;;;11.00;;
21777;SDS011;11050;52.222;20.916;2023-12-20T06:28:37;16.73;;;10.67;;
21777;SDS011;11050;52.222;20.916;2023-12-20T06:31:03;17.73;;;9.63;;
21777;SDS011;11050;52.222;20.916;2023-12-20T06:33:28;18.57;;;10.07;;
21777;SDS011;11050;52.222;20.916;2023-12-20T06:35:56;17.43;;;10.43;;
21777;SDS011;11050;52.222;20.916;2023-12-20T06:38:22;17.03;;;10.97;;
21777;SDS011;11050;52.222;20.916;2023-12-20T06:40:48;19.17;;;11.53;;
21777;SDS011;11050;52.222;20.916;2023-12-20T06:43:14;18.40;;;11.57;;
21777;SDS011;11050;52.222;20.916;2023-12-20T06:45:39;18.80;;;11.57;;
21777;SDS011;11050;52.222;20.916;2023-12-20T06:48:05;16.33;;;9.13;;
21777;SDS011;11050;52.222;20.916;2023-12-20T06:50:32;17.73;;;11.13;;
21777;SDS011;11050;52.222;20.916;2023-12-20T06:52:58;18.60;;;11.50;;
21777;SDS011;11050;52.222;20.916;2023-12-20T06:55:24;17.17;;;11.03;;
21777;SDS011;11050;52.222;20.916;2023-12-20T06:57:49;17.67;;;11.00;;
21777;SDS011;11050;52.222;20.916;2023-12-20T07:00:15;17.77;;;11.40;;
21777;SDS011;11050;52.222;20.916;2023-12-20T07:02:43;17.63;;;10.83;;
21777;SDS011;11050;52.222;20.916;2023-12-20T07:05:09;20.63;;;13.20;;
21777;SDS011;11050;52.222;20.916;2023-12-20T07:07:34;23.17;;;13.40;;
21777;SDS011;11050;52.222;20.916;2023-12-20T07:10:00;20.30;;;11.80;;
21777;SDS011;11050;52.222;20.916;2023-12-20T07:12:26;19.33;;;11.93;;
21777;SDS011;11050;52.222;20.916;2023-12-20T07:14:51;20.50;;;12.30;;
21777;SDS011;11050;52.222;20.916;2023-12-20T07:17:17;24.40;;;12.80;;
21777;SDS011;11050;52.222;20.916;2023-12-20T07:19:43;25.80;;;13.00;;
21777;SDS011;11050;52.222;20.916;2023-12-20T07:22:08;19.40;;;11.97;;
21777;SDS011;11050;52.222;20.916;2023-12-20T07:24:34;18.70;;;11.53;;
21777;SDS011;11050;52.222;20.916;2023-12-20T07:27:00;18.10;;;11.33;;
21777;SDS011;11050;52.222;20.916;2023-12-20T07:29:27;19.73;;;11.60;;
21777;SDS011;11050;52.222;20.916;2023-12-20T07:31:53;17.37;;;10.27;;
21777;SDS011;11050;52.222;20.916;2023-12-20T07:34:19;18.63;;;11.10;;
21777;SDS011;11050;52.222;20.916;2023-12-20T07:36:48;18.10;;;11.07;;
21777;SDS011;11050;52.222;20.916;2023-12-20T07:39:14;17.80;;;10.97;;
21777;SDS011;11050;52.222;20.916;2023-12-20T07:41:40;16.50;;;10.27;;
21777;SDS011;11050;52.222;20.916;2023-12-20T07:44:06;19.67;;;11.10;;
21777;SDS011;11050;52.222;20.916;2023-12-20T07:46:31;18.33;;;11.70;;
21777;SDS011;11050;52.222;20.916;2023-12-20T07:48:57;16.83;;;10.27;;
21777;SDS011;11050;52.222;20.916;2023-12-20T07:51:23;17.83;;;10.90;;
21777;SDS011;11050;52.222;20.916;2023-12-20T07:53:48;18.30;;;10.53;;
21777;SDS011;11050;52.222;20.916;2023-12-20T07:56:15;14.50;;;9.57;;
21777;SDS011;11050;52.222;20.916;2023-12-20T07:58:44;14.83;;;10.00;;
21777;SDS011;11050;52.222;20.916;2023-12-20T08:01:11;14.00;;;8.77;;
21777;SDS011;11050;52.222;20.916;2023-12-20T08:03:37;15.13;;;9.63;;
21777;SDS011;11050;52.222;20.916;2023-12-20T08:06:03;12.97;;;7.87;;
21777;SDS011;11050;52.222;20.916;2023-12-20T08:08:29;14.13;;;8.87;;
21777;SDS011;11050;52.222;20.916;2023-12-20T08:10:55;15.03;;;9.10;;
21777;SDS011;11050;52.222;20.916;2023-12-20T08:13:24;15.57;;;9.33;;
21777;SDS011;11050;52.222;20.916;2023-12-20T08:15:51;16.63;;;9.37;;
21777;SDS011;11050;52.222;20.916;2023-12-20T08:18:21;14.03;;;9.47;;
21777;SDS011;11050;52.222;20.916;2023-12-20T08:20:47;11.57;;;7.70;;
21777;SDS011;11050;52.222;20.916;2023-12-20T08:23:13;14.53;;;8.90;;
21777;SDS011;11050;52.222;20.916;2023-12-20T08:25:40;13.90;;;7.87;;
21777;SDS011;11050;52.222;20.916;2023-12-20T08:28:06;16.00;;;9.50;;
21777;SDS011;11050;52.222;20.916;2023-12-20T08:30:32;14.67;;;9.17;;
21777;SDS011;11050;52.222;20.916;2023-12-20T08:33:00;15.00;;;9.27;;
21777;SDS011;11050;52.222;20.916;2023-12-20T08:35:27;13.77;;;9.20;;
21777;SDS011;11050;52.222;20.916;2023-12-20T08:37:53;16.87;;;9.53;;
21777;SDS011;11050;52.222;20.916;2023-12-20T08:40:18;10.17;;;5.90;;
21777;SDS011;11050;52.222;20.916;2023-12-20T08:42:45;12.77;;;7.43;;
21777;SDS011;11050;52.222;20.916;2023-12-20T08:45:11;20.03;;;9.57;;
21777;SDS011;11050;52.222;20.916;2023-12-20T08:47:37;14.27;;;8.90;;
21777;SDS011;11050;52.222;20.916;2023-12-20T08:50:02;13.10;;;8.40;;
21777;SDS011;11050;52.222;20.916;2023-12-20T08:52:29;14.10;;;7.90;;
21777;SDS011;11050;52.222;20.916;2023-12-20T08:54:55;16.97;;;9.03;;
21777;SDS011;11050;52.222;20.916;2023-12-20T08:57:20;13.17;;;8.17;;
21777;SDS011;11050;52.222;20.916;2023-12-20T08:59:48;15.13;;;8.40;;
21777;SDS011;11050;52.222;20.916;2023-12-20T09:02:15;14.80;;;7.50;;
21777;SDS011;11050;52.222;20.916;2023-12-20T09:04:41;16.27;;;8.80;;
21777;SDS011;11050;52.222;20.916;2023-12-20T09:07:20;15.33;;;8.90;;
21777;SDS011;11050;52.222;20.916;2023-12-20T09:09:51;14.40;;;9.00;;
21777;SDS011;11050;52.222;20.916;2023-12-20T09:12:20;17.37;;;8.77;;
21777;SDS011;11050;52.222;20.916;2023-12-20T09:14:47;12.53;;;7.83;;
21777;SDS011;11050;52.222;20.916;2023-12-20T09:17:15;13.27;;;8.53;;
21777;SDS011;11050;52.222;20.916;2023-12-20T09:19:42;10.87;;;7.33;;
21777;SDS011;11050;52.222;20.916;2023-12-20T09:22:09;11.87;;;7.10;;
21777;SDS011;11050;52.222;20.916;2023-12-20T09:24:35;12.73;;;7.93;;
21777;SDS011;11050;52.222;20.916;2023-12-20T09:27:01;12.70;;;7.20;;
21777;SDS011;11050;52.222;20.916;2023-12-20T09:29:27;12.60;;;8.03;;
21777;SDS011;11050;52.222;20.916;2023-12-20T09:31:54;12.27;;;7.50;;
21777;SDS011;11050;52.222;20.916;2023-12-20T09:34:20;11.63;;;7.50;;
21777;SDS011;11050;52.222;20.916;2023-12-20T09:36:46;10.93;;;7.60;;
21777;SDS011;11050;52.222;20.916;2023-12-20T09:39:16;11.47;;;7.53;;
21777;SDS011;11050;52.222;20.916;2023-12-20T09:41:49;14.80;;;7.63;;
21777;SDS011;11050;52.222;20.916;2023-12-20T09:44:27;12.63;;;7.57;;
21777;SDS011;11050;52.222;20.916;2023-12-20T09:46:54;11.53;;;7.70;;
21777;SDS011;11050;52.222;20.916;2023-12-20T09:49:21;12.13;;;6.63;;
21777;SDS011;11050;52.222;20.916;2023-12-20T09:51:48;10.83;;;6.43;;
21777;SDS011;11050;52.222;20.916;2023-12-20T09:54:16;9.17;;;6.50;;
21777;SDS011;11050;52.222;20.916;2023-12-20T09:56:43;11.57;;;7.23;;
21777;SDS011;11050;52.222;20.916;2023-12-20T09:59:10;11.67;;;7.93;;
21777;SDS011;11050;52.222;20.916;2023-12-20T10:01:36;12.43;;;7.43;;
21777;SDS011;11050;52.222;20.916;2023-12-20T10:04:08;11.70;;;7.77;;
21777;SDS011;11050;52.222;20.916;2023-12-20T10:06:43;10.50;;;6.97;;
21777;SDS011;11050;52.222;20.916;2023-12-20T10:09:09;8.33;;;5.73;;
21777;SDS011;11050;52.222;20.916;2023-12-20T10:11:40;12.83;;;7.63;;
21777;SDS011;11050;52.222;20.916;2023-12-20T10:14:06;10.67;;;6.93;;
21777;SDS011;11050;52.222;20.916;2023-12-20T10:16:32;13.23;;;8.20;;
21777;SDS011;11050;52.222;20.916;2023-12-20T10:18:59;12.93;;;7.43;;
21777;SDS011;11050;52.222;20.916;2023-12-20T10:21:29;14.23;;;7.80;;
21777;SDS011;11050;52.222;20.916;2023-12-20T10:23:55;10.73;;;7.50;;
21777;SDS011;11050;52.222;20.916;2023-12-20T10:26:23;11.30;;;7.30;;
21777;SDS011;11050;52.222;20.916;2023-12-20T10:28:53;11.43;;;6.73;;
21777;SDS011;11050;52.222;20.916;2023-12-20T10:31:26;11.30;;;7.10;;
21777;SDS011;11050;52.222;20.916;2023-12-20T10:34:00;13.20;;;7.63;;
21777;SDS011;11050;52.222;20.916;2023-12-20T10:36:28;11.93;;;7.57;;
21777;SDS011;11050;52.222;20.916;2023-12-20T10:38:56;11.83;;;8.20;;
21777;SDS011;11050;52.222;20.916;2023-12-20T10:41:26;11.07;;;7.83;;
21777;SDS011;11050;52.222;20.916;2023-12-20T10:43:55;11.93;;;7.37;;
21777;SDS011;11050;52.222;20.916;2023-12-20T10:46:26;11.47;;;8.07;;
21777;SDS011;11050;52.222;20.916;2023-12-20T10:48:56;10.03;;;6.77;;
21777;SDS011;11050;52.222;20.916;2023-12-20T10:51:22;13.03;;;7.17;;
21777;SDS011;11050;52.222;20.916;2023-12-20T10:53:51;12.43;;;8.17;;
21777;SDS011;11050;52.222;20.916;2023-12-20T10:56:18;13.50;;;7.60;;
21777;SDS011;11050;52.222;20.916;2023-12-20T10:58:46;13.17;;;8.00;;
21777;SDS011;11050;52.222;20.916;2023-12-20T11:01:14;10.40;;;7.57;;
21777;SDS011;11050;52.222;20.916;2023-12-20T11:03:52;11.30;;;7.33;;
21777;SDS011;11050;52.222;20.916;2023-12-20T11:15:35;11.37;;;7.00;;
21777;SDS011;11050;52.222;20.916;2023-12-20T11:18:03;10.30;;;7.30;;
21777;SDS011;11050;52.222;20.916;2023-12-20T11:20:38;12.33;;;7.23;;
21777;SDS011;11050;52.222;20.916;2023-12-20T11:23:07;10.60;;;6.40;;
21777;SDS011;11050;52.222;20.916;2023-12-20T11:25:47;11.67;;;7.30;;
21777;SDS011;11050;52.222;20.916;2023-12-20T11:28:21;14.43;;;7.57;;
21777;SDS011;11050;52.222;20.916;2023-12-20T11:30:50;11.03;;;7.30;;
21777;SDS011;11050;52.222;20.916;2023-12-20T11:33:22;13.33;;;7.03;;
21777;SDS011;11050;52.222;20.916;2023-12-20T11:35:49;12.63;;;7.70;;
21777;SDS011;11050;52.222;20.916;2023-12-20T11:38:16;9.63;;;5.43;;
21777;SDS011;11050;52.222;20.916;2023-12-20T11:40:44;12.87;;;7.83;;
21777;SDS011;11050;52.222;20.916;2023-12-20T11:46:19;8.77;;;6.40;;
21777;SDS011;11050;52.222;20.916;2023-12-20T11:48:46;12.40;;;6.73;;
21777;SDS011;11050;52.222;20.916;2023-12-20T11:51:13;10.67;;;7.40;;
21777;SDS011;11050;52.222;20.916;2023-12-20T11:53:42;11.83;;;7.10;;
21777;SDS011;11050;52.222;20.916;2023-12-20T11:56:08;12.20;;;7.87;;
21777;SDS011;11050;52.222;20.916;2023-12-20T11:58:35;11.03;;;6.63;;
21777;SDS011;11050;52.222;20.916;2023-12-20T12:01:02;9.60;;;5.80;;
21777;SDS011;11050;52.222;20.916;2023-12-20T12:03:29;10.57;;;6.10;;
21777;SDS011;11050;52.222;20.916;2023-12-20T12:05:55;11.20;;;8.23;;
21777;SDS011;11050;52.222;20.916;2023-12-20T12:08:23;10.70;;;6.60;;
21777;SDS011;11050;52.222;20.916;2023-12-20T12:10:48;11.93;;;8.70;;
21777;SDS011;11050;52.222;20.916;2023-12-20T12:13:14;17.80;;;7.73;;
21777;SDS011;11050;52.222;20.916;2023-12-20T12:15:40;13.30;;;8.40;;
21777;SDS011;11050;52.222;20.916;2023-12-20T12:18:07;12.70;;;8.00;;
21777;SDS011;11050;52.222;20.916;2023-12-20T12:20:33;10.53;;;7.70;;
21777;SDS011;11050;52.222;20.916;2023-12-20T12:25:28;11.33;;;6.10;;
21777;SDS011;11050;52.222;20.916;2023-12-20T12:27:58;12.67;;;7.80;;
21777;SDS011;11050;52.222;20.916;2023-12-20T12:30:25;10.60;;;6.00;;
21777;SDS011;11050;52.222;20.916;2023-12-20T12:32:51;10.87;;;7.37;;
21777;SDS011;11050;52.222;20.916;2023-12-20T12:35:18;11.17;;;7.27;;
21777;SDS011;11050;52.222;20.916;2023-12-20T12:37:45;11.40;;;7.50;;
21777;SDS011;11050;52.222;20.916;2023-12-20T12:40:11;10.67;;;6.20;;
21777;SDS011;11050;52.222;20.916;2023-12-20T12:42:42;10.67;;;6.03;;
21777;SDS011;11050;52.222;20.916;2023-12-20T12:45:09;14.67;;;9.37;;
21777;SDS011;11050;52.222;20.916;2023-12-20T12:47:39;13.70;;;8.47;;
21777;SDS011;11050;52.222;20.916;2023-12-20T12:50:05;15.77;;;10.23;;
21777;SDS011;11050;52.222;20.916;2023-12-20T12:52:32;15.17;;;9.73;;
21777;SDS011;11050;52.222;20.916;2023-12-20T12:54:58;15.93;;;9.63;;
21777;SDS011;11050;52.222;20.916;2023-12-20T12:57:23;15.30;;;9.40;;
21777;SDS011;11050;52.222;20.916;2023-12-20T12:59:50;13.13;;;8.50;;
21777;SDS011;11050;52.222;20.916;2023-12-20T13:02:15;17.20;;;10.63;;
21777;SDS011;11050;52.222;20.916;2023-12-20T13:04:41;10.67;;;6.90;;
21777;SDS011;11050;52.222;20.916;2023-12-20T13:07:08;13.33;;;9.00;;
21777;SDS011;11050;52.222;20.916;2023-12-20T13:09:38;12.80;;;8.27;;
21777;SDS011;11050;52.222;20.916;2023-12-20T13:12:05;14.00;;;9.80;;
21777;SDS011;11050;52.222;20.916;2023-12-20T13:14:33;18.90;;;9.53;;
21777;SDS011;11050;52.222;20.916;2023-12-20T13:17:00;16.53;;;10.13;;
21777;SDS011;11050;52.222;20.916;2023-12-20T13:19:26;15.33;;;9.43;;
21777;SDS011;11050;52.222;20.916;2023-12-20T13:21:52;16.73;;;10.23;;
21777;SDS011;11050;52.222;20.916;2023-12-20T13:24:18;16.07;;;8.90;;
21777;SDS011;11050;52.222;20.916;2023-12-20T13:26:44;18.03;;;9.90;;
21777;SDS011;11050;52.222;20.916;2023-12-20T13:29:10;12.60;;;8.00;;
21777;SDS011;11050;52.222;20.916;2023-12-20T13:31:37;14.30;;;8.87;;
21777;SDS011;11050;52.222;20.916;2023-12-20T13:34:03;15.53;;;9.50;;
21777;SDS011;11050;52.222;20.916;2023-12-20T13:36:29;17.63;;;9.00;;
21777;SDS011;11050;52.222;20.916;2023-12-20T13:38:54;15.13;;;7.97;;
21777;SDS011;11050;52.222;20.916;2023-12-20T13:41:20;16.77;;;9.70;;
21777;SDS011;11050;52.222;20.916;2023-12-20T13:43:46;12.30;;;7.43;;
21777;SDS011;11050;52.222;20.916;2023-12-20T13:46:12;15.27;;;8.70;;
21777;SDS011;11050;52.222;20.916;2023-12-20T13:48:39;15.83;;;8.80;;
21777;SDS011;11050;52.222;20.916;2023-12-20T13:51:05;15.10;;;9.13;;
21777;SDS011;11050;52.222;20.916;2023-12-20T13:53:31;14.17;;;8.97;;
21777;SDS011;11050;52.222;20.916;2023-12-20T13:55:57;11.80;;;7.57;;
21777;SDS011;11050;52.222;20.916;2023-12-20T13:58:23;15.07;;;9.50;;
21777;SDS011;11050;52.222;20.916;2023-12-20T14:00:48;14.40;;;9.20;;
21777;SDS011;11050;52.222;20.916;2023-12-20T14:03:14;9.97;;;5.73;;
21777;SDS011;11050;52.222;20.916;2023-12-20T14:05:40;15.37;;;9.10;;
21777;SDS011;11050;52.222;20.916;2023-12-20T14:08:06;14.03;;;8.03;;
21777;SDS011;11050;52.222;20.916;2023-12-20T14:10:32;11.37;;;7.37;;
21777;SDS011;11050;52.222;20.916;2023-12-20T14:12:58;10.70;;;6.87;;
21777;SDS011;11050;52.222;20.916;2023-12-20T14:15:23;14.30;;;7.40;;
21777;SDS011;11050;52.222;20.916;2023-12-20T14:17:50;9.70;;;6.07;;
21777;SDS011;11050;52.222;20.916;2023-12-20T14:20:16;12.17;;;7.77;;
21777;SDS011;11050;52.222;20.916;2023-12-20T14:22:42;9.07;;;5.87;;
21777;SDS011;11050;52.222;20.916;2023-12-20T14:25:10;12.27;;;7.47;;
21777;SDS011;11050;52.222;20.916;2023-12-20T14:27:37;6.70;;;3.93;;
21777;SDS011;11050;52.222;20.916;2023-12-20T14:30:04;14.23;;;7.17;;